CMB824 Details

Departure: RAF Ascension Island (FHAW)
Arrival: Grantley Adams International Airport (TBPB)
Route: EGUPA 0030W 0440N 0850N DOLRO UM791 BGI
Notes: USTRANSCOM CONTRACT FLIGHT | PAYLOAD RESTRICTED | ETOPS


Current Weather Information
No METAR available for FHAW.
TBPB 232200Z 10012KT 9999 SCT022 28/22 Q1012 NOSIG